Terminal Aerodrome Forecast
Issued by NWS Cleveland, OH

Home | Current Version | Previous Version | Text Only | Print | Product List | Glossary On
Versions: 1 2 3 4 5 6 7 8 9 10 11 12 13 14 15 16 17 18 19 20
383
FTUS41 KCLE 301127 CCA
TAFYNG
TAF COR
KYNG 301127Z 3012/0112 09012G20KT P6SM VCSH SCT006 OVC035
      TEMPO 3012/3015 6SM -RA SCT006 OVC015
     FM301700 10012G20KT P6SM SCT015 OVC025
     FM010200 10012KT 6SM -RA BR SCT006 OVC015=

USA.gov is the U.S. government's official web portal to all federal, state and local government web resources and services.